sensor_id;sensor_type;location;lat;lon;timestamp;P1;durP1;ratioP1;P2;durP2;ratioP2
72920;SDS011;61064;51.654;5.476;2022-07-15T00:01:49;10.60;;;2.20;;
72920;SDS011;61064;51.654;5.476;2022-07-15T00:04:15;10.90;;;1.97;;
72920;SDS011;61064;51.654;5.476;2022-07-15T00:06:41;10.25;;;2.10;;
72920;SDS011;61064;51.654;5.476;2022-07-15T00:09:06;11.40;;;2.10;;
72920;SDS011;61064;51.654;5.476;2022-07-15T00:11:32;10.68;;;1.92;;
72920;SDS011;61064;51.654;5.476;2022-07-15T00:13:57;10.50;;;2.10;;
72920;SDS011;61064;51.654;5.476;2022-07-15T00:16:23;7.80;;;1.97;;
72920;SDS011;61064;51.654;5.476;2022-07-15T00:18:48;10.90;;;1.90;;
72920;SDS011;61064;51.654;5.476;2022-07-15T00:21:14;8.87;;;1.83;;
72920;SDS011;61064;51.654;5.476;2022-07-15T00:23:39;8.97;;;1.97;;
72920;SDS011;61064;51.654;5.476;2022-07-15T00:26:04;8.57;;;2.33;;
72920;SDS011;61064;51.654;5.476;2022-07-15T00:28:30;12.77;;;2.07;;
72920;SDS011;61064;51.654;5.476;2022-07-15T00:30:55;8.90;;;1.80;;
72920;SDS011;61064;51.654;5.476;2022-07-15T00:33:21;12.70;;;2.13;;
72920;SDS011;61064;51.654;5.476;2022-07-15T00:35:47;10.97;;;2.27;;
72920;SDS011;61064;51.654;5.476;2022-07-15T00:38:12;9.63;;;2.00;;
72920;SDS011;61064;51.654;5.476;2022-07-15T00:40:48;9.97;;;2.20;;
72920;SDS011;61064;51.654;5.476;2022-07-15T00:43:14;9.73;;;2.15;;
72920;SDS011;61064;51.654;5.476;2022-07-15T00:45:41;10.55;;;2.60;;
72920;SDS011;61064;51.654;5.476;2022-07-15T00:48:08;7.57;;;2.22;;
72920;SDS011;61064;51.654;5.476;2022-07-15T00:50:34;8.00;;;2.30;;
72920;SDS011;61064;51.654;5.476;2022-07-15T00:53:00;9.13;;;2.23;;
72920;SDS011;61064;51.654;5.476;2022-07-15T00:55:27;10.70;;;2.58;;
72920;SDS011;61064;51.654;5.476;2022-07-15T00:57:57;16.10;;;2.50;;
72920;SDS011;61064;51.654;5.476;2022-07-15T01:00:30;10.35;;;2.10;;
72920;SDS011;61064;51.654;5.476;2022-07-15T01:02:57;10.35;;;2.40;;
72920;SDS011;61064;51.654;5.476;2022-07-15T01:05:24;9.60;;;2.13;;
72920;SDS011;61064;51.654;5.476;2022-07-15T01:07:50;11.23;;;2.10;;
72920;SDS011;61064;51.654;5.476;2022-07-15T01:10:17;10.17;;;2.00;;
72920;SDS011;61064;51.654;5.476;2022-07-15T01:12:46;9.48;;;2.17;;
72920;SDS011;61064;51.654;5.476;2022-07-15T01:15:13;10.40;;;2.05;;
72920;SDS011;61064;51.654;5.476;2022-07-15T01:17:38;12.18;;;2.30;;
72920;SDS011;61064;51.654;5.476;2022-07-15T01:20:04;9.00;;;1.63;;
72920;SDS011;61064;51.654;5.476;2022-07-15T01:22:30;11.43;;;2.00;;
72920;SDS011;61064;51.654;5.476;2022-07-15T01:24:55;7.77;;;2.20;;
72920;SDS011;61064;51.654;5.476;2022-07-15T01:27:21;9.87;;;2.10;;
72920;SDS011;61064;51.654;5.476;2022-07-15T01:29:46;11.37;;;2.10;;
72920;SDS011;61064;51.654;5.476;2022-07-15T01:32:12;12.65;;;2.28;;
72920;SDS011;61064;51.654;5.476;2022-07-15T01:34:38;11.87;;;2.20;;
72920;SDS011;61064;51.654;5.476;2022-07-15T01:37:03;9.90;;;2.40;;
72920;SDS011;61064;51.654;5.476;2022-07-15T01:39:29;12.02;;;2.30;;
72920;SDS011;61064;51.654;5.476;2022-07-15T01:41:55;11.93;;;2.40;;
72920;SDS011;61064;51.654;5.476;2022-07-15T01:44:20;14.57;;;2.38;;
72920;SDS011;61064;51.654;5.476;2022-07-15T01:46:46;8.50;;;2.13;;
72920;SDS011;61064;51.654;5.476;2022-07-15T01:49:12;13.70;;;2.67;;
72920;SDS011;61064;51.654;5.476;2022-07-15T01:51:57;10.30;;;2.10;;
72920;SDS011;61064;51.654;5.476;2022-07-15T01:54:24;8.47;;;2.23;;
72920;SDS011;61064;51.654;5.476;2022-07-15T01:56:51;11.23;;;2.20;;
72920;SDS011;61064;51.654;5.476;2022-07-15T01:59:18;11.00;;;2.47;;
72920;SDS011;61064;51.654;5.476;2022-07-15T02:01:47;10.45;;;2.42;;
72920;SDS011;61064;51.654;5.476;2022-07-15T02:04:13;11.20;;;2.70;;
72920;SDS011;61064;51.654;5.476;2022-07-15T02:06:38;9.17;;;2.40;;
72920;SDS011;61064;51.654;5.476;2022-07-15T02:09:05;8.80;;;2.00;;
72920;SDS011;61064;51.654;5.476;2022-07-15T02:11:30;11.85;;;2.20;;
72920;SDS011;61064;51.654;5.476;2022-07-15T02:13:55;9.97;;;2.50;;
72920;SDS011;61064;51.654;5.476;2022-07-15T02:16:24;10.37;;;2.10;;
72920;SDS011;61064;51.654;5.476;2022-07-15T02:18:59;10.50;;;2.20;;
72920;SDS011;61064;51.654;5.476;2022-07-15T02:21:25;9.00;;;2.10;;
72920;SDS011;61064;51.654;5.476;2022-07-15T02:23:51;9.38;;;2.35;;
72920;SDS011;61064;51.654;5.476;2022-07-15T02:26:20;9.50;;;2.40;;
72920;SDS011;61064;51.654;5.476;2022-07-15T02:28:46;9.93;;;2.40;;
72920;SDS011;61064;51.654;5.476;2022-07-15T02:31:12;12.82;;;2.40;;
72920;SDS011;61064;51.654;5.476;2022-07-15T02:33:38;10.23;;;2.47;;
72920;SDS011;61064;51.654;5.476;2022-07-15T02:36:04;9.57;;;2.30;;
72920;SDS011;61064;51.654;5.476;2022-07-15T02:38:30;12.50;;;2.63;;
72920;SDS011;61064;51.654;5.476;2022-07-15T02:40:55;9.80;;;2.47;;
72920;SDS011;61064;51.654;5.476;2022-07-15T02:43:21;10.73;;;2.53;;
72920;SDS011;61064;51.654;5.476;2022-07-15T02:45:48;8.55;;;2.28;;
72920;SDS011;61064;51.654;5.476;2022-07-15T02:48:13;8.00;;;2.22;;
72920;SDS011;61064;51.654;5.476;2022-07-15T02:50:40;11.27;;;2.60;;
72920;SDS011;61064;51.654;5.476;2022-07-15T02:53:06;9.43;;;2.90;;
72920;SDS011;61064;51.654;5.476;2022-07-15T02:55:31;10.25;;;2.40;;
72920;SDS011;61064;51.654;5.476;2022-07-15T02:57:57;7.07;;;2.07;;
72920;SDS011;61064;51.654;5.476;2022-07-15T03:00:22;9.73;;;2.10;;
72920;SDS011;61064;51.654;5.476;2022-07-15T03:02:51;10.45;;;2.50;;
72920;SDS011;61064;51.654;5.476;2022-07-15T03:05:17;8.83;;;2.30;;
72920;SDS011;61064;51.654;5.476;2022-07-15T03:07:44;10.02;;;2.35;;
72920;SDS011;61064;51.654;5.476;2022-07-15T03:10:11;10.93;;;2.55;;
72920;SDS011;61064;51.654;5.476;2022-07-15T03:12:37;8.95;;;2.05;;
72920;SDS011;61064;51.654;5.476;2022-07-15T03:15:03;7.50;;;2.20;;
72920;SDS011;61064;51.654;5.476;2022-07-15T03:17:29;11.25;;;2.25;;
72920;SDS011;61064;51.654;5.476;2022-07-15T03:19:56;9.67;;;2.43;;
72920;SDS011;61064;51.654;5.476;2022-07-15T03:22:22;9.70;;;2.50;;
72920;SDS011;61064;51.654;5.476;2022-07-15T03:24:48;10.15;;;2.60;;
72920;SDS011;61064;51.654;5.476;2022-07-15T03:27:13;10.87;;;2.60;;
72920;SDS011;61064;51.654;5.476;2022-07-15T03:29:40;10.95;;;2.75;;
72920;SDS011;61064;51.654;5.476;2022-07-15T03:32:06;11.73;;;2.65;;
72920;SDS011;61064;51.654;5.476;2022-07-15T03:34:31;14.53;;;2.90;;
72920;SDS011;61064;51.654;5.476;2022-07-15T03:36:57;10.53;;;2.80;;
72920;SDS011;61064;51.654;5.476;2022-07-15T03:39:24;11.50;;;2.70;;
72920;SDS011;61064;51.654;5.476;2022-07-15T03:41:49;11.60;;;2.78;;
72920;SDS011;61064;51.654;5.476;2022-07-15T03:44:15;10.40;;;2.53;;
72920;SDS011;61064;51.654;5.476;2022-07-15T03:46:41;9.70;;;2.78;;
72920;SDS011;61064;51.654;5.476;2022-07-15T03:49:06;10.80;;;2.47;;
72920;SDS011;61064;51.654;5.476;2022-07-15T03:51:32;9.97;;;2.40;;
72920;SDS011;61064;51.654;5.476;2022-07-15T03:53:58;8.30;;;2.33;;
72920;SDS011;61064;51.654;5.476;2022-07-15T03:56:25;9.30;;;2.70;;
72920;SDS011;61064;51.654;5.476;2022-07-15T03:58:51;8.65;;;2.35;;
72920;SDS011;61064;51.654;5.476;2022-07-15T04:01:17;12.43;;;2.60;;
72920;SDS011;61064;51.654;5.476;2022-07-15T04:03:42;9.43;;;2.40;;
72920;SDS011;61064;51.654;5.476;2022-07-15T04:06:07;11.20;;;2.53;;
72920;SDS011;61064;51.654;5.476;2022-07-15T04:08:33;10.27;;;2.37;;
72920;SDS011;61064;51.654;5.476;2022-07-15T04:10:58;8.70;;;2.63;;
72920;SDS011;61064;51.654;5.476;2022-07-15T04:13:24;9.77;;;2.77;;
72920;SDS011;61064;51.654;5.476;2022-07-15T04:15:49;11.18;;;3.00;;
72920;SDS011;61064;51.654;5.476;2022-07-15T04:18:15;8.67;;;2.40;;
72920;SDS011;61064;51.654;5.476;2022-07-15T04:20:41;8.43;;;2.17;;
72920;SDS011;61064;51.654;5.476;2022-07-15T04:23:06;10.03;;;2.73;;
72920;SDS011;61064;51.654;5.476;2022-07-15T04:25:32;11.50;;;2.67;;
72920;SDS011;61064;51.654;5.476;2022-07-15T04:27:57;7.43;;;2.33;;
72920;SDS011;61064;51.654;5.476;2022-07-15T04:30:22;10.98;;;2.30;;
72920;SDS011;61064;51.654;5.476;2022-07-15T04:32:48;11.00;;;2.40;;
72920;SDS011;61064;51.654;5.476;2022-07-15T04:35:16;7.82;;;2.20;;
72920;SDS011;61064;51.654;5.476;2022-07-15T04:37:42;10.60;;;2.60;;
72920;SDS011;61064;51.654;5.476;2022-07-15T04:40:07;10.35;;;2.25;;
72920;SDS011;61064;51.654;5.476;2022-07-15T04:42:34;12.10;;;2.63;;
72920;SDS011;61064;51.654;5.476;2022-07-15T04:45:00;7.03;;;2.15;;
72920;SDS011;61064;51.654;5.476;2022-07-15T04:47:25;13.33;;;3.00;;
72920;SDS011;61064;51.654;5.476;2022-07-15T04:49:50;10.33;;;2.20;;
72920;SDS011;61064;51.654;5.476;2022-07-15T04:52:34;9.38;;;2.28;;
72920;SDS011;61064;51.654;5.476;2022-07-15T04:55:00;7.27;;;2.03;;
72920;SDS011;61064;51.654;5.476;2022-07-15T04:57:27;10.85;;;2.10;;
72920;SDS011;61064;51.654;5.476;2022-07-15T04:59:52;15.27;;;2.90;;
72920;SDS011;61064;51.654;5.476;2022-07-15T05:02:17;10.37;;;2.10;;
72920;SDS011;61064;51.654;5.476;2022-07-15T05:04:43;8.40;;;2.27;;
72920;SDS011;61064;51.654;5.476;2022-07-15T05:07:08;10.67;;;2.13;;
72920;SDS011;61064;51.654;5.476;2022-07-15T05:09:34;10.20;;;2.23;;
72920;SDS011;61064;51.654;5.476;2022-07-15T05:11:59;8.30;;;2.20;;
72920;SDS011;61064;51.654;5.476;2022-07-15T05:14:24;9.97;;;2.43;;
72920;SDS011;61064;51.654;5.476;2022-07-15T05:16:50;11.80;;;2.65;;
72920;SDS011;61064;51.654;5.476;2022-07-15T05:19:15;8.73;;;2.70;;
72920;SDS011;61064;51.654;5.476;2022-07-15T05:21:41;11.70;;;2.60;;
72920;SDS011;61064;51.654;5.476;2022-07-15T05:24:06;10.43;;;2.30;;
72920;SDS011;61064;51.654;5.476;2022-07-15T05:26:31;10.43;;;2.50;;
72920;SDS011;61064;51.654;5.476;2022-07-15T05:28:58;10.95;;;2.30;;
72920;SDS011;61064;51.654;5.476;2022-07-15T05:31:24;9.60;;;2.42;;
72920;SDS011;61064;51.654;5.476;2022-07-15T05:33:49;8.67;;;2.00;;
72920;SDS011;61064;51.654;5.476;2022-07-15T05:36:17;9.77;;;3.15;;
72920;SDS011;61064;51.654;5.476;2022-07-15T05:38:42;12.23;;;2.70;;
72920;SDS011;61064;51.654;5.476;2022-07-15T05:41:08;8.03;;;2.20;;
72920;SDS011;61064;51.654;5.476;2022-07-15T05:43:36;11.43;;;2.22;;
72920;SDS011;61064;51.654;5.476;2022-07-15T05:46:02;11.30;;;1.95;;
72920;SDS011;61064;51.654;5.476;2022-07-15T05:48:28;7.40;;;1.67;;
72920;SDS011;61064;51.654;5.476;2022-07-15T05:50:54;7.45;;;1.92;;
72920;SDS011;61064;51.654;5.476;2022-07-15T05:53:19;9.53;;;1.70;;
72920;SDS011;61064;51.654;5.476;2022-07-15T05:55:44;8.50;;;1.77;;
72920;SDS011;61064;51.654;5.476;2022-07-15T05:58:10;9.77;;;1.67;;
72920;SDS011;61064;51.654;5.476;2022-07-15T06:00:35;6.30;;;1.77;;
72920;SDS011;61064;51.654;5.476;2022-07-15T06:03:02;8.57;;;1.80;;
72920;SDS011;61064;51.654;5.476;2022-07-15T06:05:28;7.85;;;1.15;;
72920;SDS011;61064;51.654;5.476;2022-07-15T06:07:54;7.73;;;1.50;;
72920;SDS011;61064;51.654;5.476;2022-07-15T06:10:19;6.25;;;1.20;;
72920;SDS011;61064;51.654;5.476;2022-07-15T06:12:45;7.20;;;1.13;;
72920;SDS011;61064;51.654;5.476;2022-07-15T06:15:10;6.87;;;1.20;;
72920;SDS011;61064;51.654;5.476;2022-07-15T06:17:36;6.43;;;0.90;;
72920;SDS011;61064;51.654;5.476;2022-07-15T06:20:02;10.87;;;1.30;;
72920;SDS011;61064;51.654;5.476;2022-07-15T06:22:27;6.00;;;0.90;;
72920;SDS011;61064;51.654;5.476;2022-07-15T06:24:53;7.27;;;1.00;;
72920;SDS011;61064;51.654;5.476;2022-07-15T06:27:18;6.90;;;0.80;;
72920;SDS011;61064;51.654;5.476;2022-07-15T06:29:46;7.40;;;0.90;;
72920;SDS011;61064;51.654;5.476;2022-07-15T06:32:12;7.13;;;0.98;;
72920;SDS011;61064;51.654;5.476;2022-07-15T06:34:37;5.33;;;0.70;;
72920;SDS011;61064;51.654;5.476;2022-07-15T06:37:03;7.60;;;1.30;;
72920;SDS011;61064;51.654;5.476;2022-07-15T06:39:30;9.50;;;1.92;;
72920;SDS011;61064;51.654;5.476;2022-07-15T06:41:56;8.63;;;1.25;;
72920;SDS011;61064;51.654;5.476;2022-07-15T06:44:21;7.67;;;1.10;;
72920;SDS011;61064;51.654;5.476;2022-07-15T06:46:46;8.67;;;0.80;;
72920;SDS011;61064;51.654;5.476;2022-07-15T06:49:12;7.33;;;0.70;;
72920;SDS011;61064;51.654;5.476;2022-07-15T06:51:37;9.67;;;0.83;;
72920;SDS011;61064;51.654;5.476;2022-07-15T06:54:03;7.03;;;0.73;;
72920;SDS011;61064;51.654;5.476;2022-07-15T06:56:29;8.30;;;0.85;;
72920;SDS011;61064;51.654;5.476;2022-07-15T06:58:54;8.60;;;0.93;;
72920;SDS011;61064;51.654;5.476;2022-07-15T07:01:20;5.73;;;0.70;;
72920;SDS011;61064;51.654;5.476;2022-07-15T07:03:45;10.00;;;2.10;;
72920;SDS011;61064;51.654;5.476;2022-07-15T07:06:10;8.27;;;1.33;;
72920;SDS011;61064;51.654;5.476;2022-07-15T07:08:36;5.88;;;0.70;;
72920;SDS011;61064;51.654;5.476;2022-07-15T07:11:02;7.30;;;0.90;;
72920;SDS011;61064;51.654;5.476;2022-07-15T07:13:27;6.95;;;0.82;;
72920;SDS011;61064;51.654;5.476;2022-07-15T07:15:53;9.00;;;1.03;;
72920;SDS011;61064;51.654;5.476;2022-07-15T07:18:18;10.00;;;1.17;;
72920;SDS011;61064;51.654;5.476;2022-07-15T07:20:44;6.18;;;0.73;;
72920;SDS011;61064;51.654;5.476;2022-07-15T07:23:10;7.17;;;0.80;;
72920;SDS011;61064;51.654;5.476;2022-07-15T07:25:35;7.35;;;0.85;;
72920;SDS011;61064;51.654;5.476;2022-07-15T07:28:01;8.07;;;0.60;;
72920;SDS011;61064;51.654;5.476;2022-07-15T07:30:29;8.40;;;0.90;;
72920;SDS011;61064;51.654;5.476;2022-07-15T07:32:55;5.32;;;0.70;;
72920;SDS011;61064;51.654;5.476;2022-07-15T07:35:22;7.97;;;1.00;;
72920;SDS011;61064;51.654;5.476;2022-07-15T07:37:49;5.55;;;0.80;;
72920;SDS011;61064;51.654;5.476;2022-07-15T07:40:14;5.75;;;0.80;;
72920;SDS011;61064;51.654;5.476;2022-07-15T07:42:42;6.88;;;1.00;;
72920;SDS011;61064;51.654;5.476;2022-07-15T07:45:08;7.97;;;0.93;;
72920;SDS011;61064;51.654;5.476;2022-07-15T07:47:33;7.47;;;1.13;;
72920;SDS011;61064;51.654;5.476;2022-07-15T07:50:02;6.97;;;1.02;;
72920;SDS011;61064;51.654;5.476;2022-07-15T07:52:29;7.78;;;0.90;;
72920;SDS011;61064;51.654;5.476;2022-07-15T07:54:54;7.07;;;0.87;;
72920;SDS011;61064;51.654;5.476;2022-07-15T07:57:19;5.77;;;0.60;;
72920;SDS011;61064;51.654;5.476;2022-07-15T07:59:45;6.07;;;0.80;;
72920;SDS011;61064;51.654;5.476;2022-07-15T08:02:10;6.87;;;0.90;;
72920;SDS011;61064;51.654;5.476;2022-07-15T08:04:36;7.90;;;0.73;;
72920;SDS011;61064;51.654;5.476;2022-07-15T08:07:02;5.63;;;0.63;;
72920;SDS011;61064;51.654;5.476;2022-07-15T08:09:27;6.53;;;0.55;;
72920;SDS011;61064;51.654;5.476;2022-07-15T08:11:52;7.47;;;0.90;;
72920;SDS011;61064;51.654;5.476;2022-07-15T08:14:18;7.10;;;0.90;;
72920;SDS011;61064;51.654;5.476;2022-07-15T08:16:43;5.37;;;0.73;;
72920;SDS011;61064;51.654;5.476;2022-07-15T08:19:10;5.97;;;0.98;;
72920;SDS011;61064;51.654;5.476;2022-07-15T08:21:40;5.47;;;0.75;;
72920;SDS011;61064;51.654;5.476;2022-07-15T08:24:06;6.80;;;0.80;;
72920;SDS011;61064;51.654;5.476;2022-07-15T08:26:31;5.60;;;0.73;;
72920;SDS011;61064;51.654;5.476;2022-07-15T08:28:57;8.83;;;0.67;;
72920;SDS011;61064;51.654;5.476;2022-07-15T08:31:22;5.77;;;0.63;;
72920;SDS011;61064;51.654;5.476;2022-07-15T08:33:48;5.28;;;0.70;;
72920;SDS011;61064;51.654;5.476;2022-07-15T08:36:14;6.35;;;0.80;;
72920;SDS011;61064;51.654;5.476;2022-07-15T08:38:42;4.38;;;0.50;;
72920;SDS011;61064;51.654;5.476;2022-07-15T08:41:08;7.50;;;0.70;;
72920;SDS011;61064;51.654;5.476;2022-07-15T08:43:33;5.33;;;0.70;;
72920;SDS011;61064;51.654;5.476;2022-07-15T08:46:00;5.90;;;0.70;;
72920;SDS011;61064;51.654;5.476;2022-07-15T08:48:27;5.67;;;0.70;;
72920;SDS011;61064;51.654;5.476;2022-07-15T08:50:56;6.85;;;1.00;;
72920;SDS011;61064;51.654;5.476;2022-07-15T08:53:25;6.88;;;0.80;;
72920;SDS011;61064;51.654;5.476;2022-07-15T08:55:52;6.78;;;0.77;;
72920;SDS011;61064;51.654;5.476;2022-07-15T08:58:18;6.63;;;0.63;;
72920;SDS011;61064;51.654;5.476;2022-07-15T09:00:43;6.13;;;0.60;;
72920;SDS011;61064;51.654;5.476;2022-07-15T09:03:09;5.87;;;0.83;;
72920;SDS011;61064;51.654;5.476;2022-07-15T09:05:34;7.83;;;0.97;;
72920;SDS011;61064;51.654;5.476;2022-07-15T09:13:21;7.25;;;0.68;;
72920;SDS011;61064;51.654;5.476;2022-07-15T09:15:55;6.77;;;0.80;;
72920;SDS011;61064;51.654;5.476;2022-07-15T09:18:43;7.15;;;0.90;;
72920;SDS011;61064;51.654;5.476;2022-07-15T09:21:16;10.02;;;1.13;;
72920;SDS011;61064;51.654;5.476;2022-07-15T09:23:42;5.68;;;0.70;;
72920;SDS011;61064;51.654;5.476;2022-07-15T09:29:01;4.57;;;0.60;;
72920;SDS011;61064;51.654;5.476;2022-07-15T09:31:48;5.75;;;0.55;;
72920;SDS011;61064;51.654;5.476;2022-07-15T09:34:58;5.85;;;0.80;;
72920;SDS011;61064;51.654;5.476;2022-07-15T09:37:24;9.10;;;0.87;;
72920;SDS011;61064;51.654;5.476;2022-07-15T09:39:54;5.68;;;0.80;;
72920;SDS011;61064;51.654;5.476;2022-07-15T09:42:21;7.63;;;0.80;;
72920;SDS011;61064;51.654;5.476;2022-07-15T09:44:47;7.60;;;1.20;;
72920;SDS011;61064;51.654;5.476;2022-07-15T09:47:16;4.95;;;0.90;;
72920;SDS011;61064;51.654;5.476;2022-07-15T09:49:43;6.00;;;0.70;;
72920;SDS011;61064;51.654;5.476;2022-07-15T09:52:10;6.30;;;0.80;;
72920;SDS011;61064;51.654;5.476;2022-07-15T09:54:42;4.88;;;0.77;;
72920;SDS011;61064;51.654;5.476;2022-07-15T09:57:14;5.93;;;0.70;;
72920;SDS011;61064;51.654;5.476;2022-07-15T09:59:44;5.00;;;0.70;;
72920;SDS011;61064;51.654;5.476;2022-07-15T10:02:11;6.13;;;0.73;;
72920;SDS011;61064;51.654;5.476;2022-07-15T10:04:36;6.25;;;0.73;;
72920;SDS011;61064;51.654;5.476;2022-07-15T10:07:02;6.15;;;0.80;;
72920;SDS011;61064;51.654;5.476;2022-07-15T10:09:31;5.67;;;0.70;;
72920;SDS011;61064;51.654;5.476;2022-07-15T10:11:59;7.07;;;0.90;;
72920;SDS011;61064;51.654;5.476;2022-07-15T10:29:29;5.18;;;0.68;;
72920;SDS011;61064;51.654;5.476;2022-07-15T10:31:59;5.88;;;0.70;;
72920;SDS011;61064;51.654;5.476;2022-07-15T10:34:32;4.55;;;0.65;;
72920;SDS011;61064;51.654;5.476;2022-07-15T10:37:00;4.73;;;0.70;;
72920;SDS011;61064;51.654;5.476;2022-07-15T10:39:46;4.18;;;0.65;;
72920;SDS011;61064;51.654;5.476;2022-07-15T10:42:15;7.72;;;0.90;;
72920;SDS011;61064;51.654;5.476;2022-07-15T10:45:04;6.10;;;0.80;;
72920;SDS011;61064;51.654;5.476;2022-07-15T10:47:31;5.00;;;0.70;;
72920;SDS011;61064;51.654;5.476;2022-07-15T10:49:57;6.00;;;0.70;;
72920;SDS011;61064;51.654;5.476;2022-07-15T10:52:27;6.03;;;0.73;;
72920;SDS011;61064;51.654;5.476;2022-07-15T10:58:05;6.15;;;0.80;;
72920;SDS011;61064;51.654;5.476;2022-07-15T11:03:08;5.65;;;0.80;;
72920;SDS011;61064;51.654;5.476;2022-07-15T11:05:59;5.18;;;0.65;;
72920;SDS011;61064;51.654;5.476;2022-07-15T11:13:39;2.92;;;0.50;;
72920;SDS011;61064;51.654;5.476;2022-07-15T11:16:12;5.70;;;0.60;;
72920;SDS011;61064;51.654;5.476;2022-07-15T11:18:48;4.75;;;0.60;;
72920;SDS011;61064;51.654;5.476;2022-07-15T11:21:19;5.00;;;0.57;;
72920;SDS011;61064;51.654;5.476;2022-07-15T11:23:48;5.35;;;0.70;;
72920;SDS011;61064;51.654;5.476;2022-07-15T11:26:19;5.32;;;0.63;;
72920;SDS011;61064;51.654;5.476;2022-07-15T11:28:55;4.45;;;0.60;;
72920;SDS011;61064;51.654;5.476;2022-07-15T11:31:22;6.30;;;0.80;;
72920;SDS011;61064;51.654;5.476;2022-07-15T11:33:52;5.38;;;0.68;;
72920;SDS011;61064;51.654;5.476;2022-07-15T11:36:18;3.90;;;0.60;;
72920;SDS011;61064;51.654;5.476;2022-07-15T11:38:47;5.28;;;0.40;;
72920;SDS011;61064;51.654;5.476;2022-07-15T11:41:13;3.75;;;0.50;;
72920;SDS011;61064;51.654;5.476;2022-07-15T11:44:02;4.23;;;0.53;;
72920;SDS011;61064;51.654;5.476;2022-07-15T11:46:48;4.25;;;0.60;;
72920;SDS011;61064;51.654;5.476;2022-07-15T11:52:31;5.15;;;0.60;;
72920;SDS011;61064;51.654;5.476;2022-07-15T11:54:55;4.32;;;0.55;;
72920;SDS011;61064;51.654;5.476;2022-07-15T11:57:21;4.70;;;0.60;;
72920;SDS011;61064;51.654;5.476;2022-07-15T11:59:55;4.25;;;0.68;;
72920;SDS011;61064;51.654;5.476;2022-07-15T12:02:26;6.00;;;0.60;;
72920;SDS011;61064;51.654;5.476;2022-07-15T12:05:02;4.32;;;0.68;;
72920;SDS011;61064;51.654;5.476;2022-07-15T12:07:45;4.33;;;0.60;;
72920;SDS011;61064;51.654;5.476;2022-07-15T12:10:12;4.55;;;0.70;;
72920;SDS011;61064;51.654;5.476;2022-07-15T12:12:53;6.63;;;0.70;;
72920;SDS011;61064;51.654;5.476;2022-07-15T12:15:20;4.15;;;0.50;;
72920;SDS011;61064;51.654;5.476;2022-07-15T12:17:46;4.40;;;0.70;;
72920;SDS011;61064;51.654;5.476;2022-07-15T12:20:12;4.65;;;0.60;;
72920;SDS011;61064;51.654;5.476;2022-07-15T12:23:00;3.38;;;0.70;;
72920;SDS011;61064;51.654;5.476;2022-07-15T12:25:33;5.43;;;0.82;;
72920;SDS011;61064;51.654;5.476;2022-07-15T12:27:59;4.60;;;0.50;;
72920;SDS011;61064;51.654;5.476;2022-07-15T12:30:32;3.60;;;0.70;;
72920;SDS011;61064;51.654;5.476;2022-07-15T12:33:15;4.57;;;0.50;;
72920;SDS011;61064;51.654;5.476;2022-07-15T12:35:45;4.47;;;0.60;;
72920;SDS011;61064;51.654;5.476;2022-07-15T12:38:17;4.03;;;0.60;;
72920;SDS011;61064;51.654;5.476;2022-07-15T12:40:51;4.10;;;0.73;;
72920;SDS011;61064;51.654;5.476;2022-07-15T12:43:17;3.23;;;0.50;;
72920;SDS011;61064;51.654;5.476;2022-07-15T12:45:42;4.60;;;0.70;;
72920;SDS011;61064;51.654;5.476;2022-07-15T12:48:14;5.07;;;0.70;;
72920;SDS011;61064;51.654;5.476;2022-07-15T12:53:11;4.13;;;0.60;;
72920;SDS011;61064;51.654;5.476;2022-07-15T12:55:41;2.87;;;0.63;;
72920;SDS011;61064;51.654;5.476;2022-07-15T12:58:09;4.85;;;0.60;;
72920;SDS011;61064;51.654;5.476;2022-07-15T13:00:36;3.55;;;0.65;;
72920;SDS011;61064;51.654;5.476;2022-07-15T13:05:35;6.25;;;0.70;;
72920;SDS011;61064;51.654;5.476;2022-07-15T13:08:04;2.67;;;0.60;;
72920;SDS011;61064;51.654;5.476;2022-07-15T13:10:33;3.92;;;0.60;;
72920;SDS011;61064;51.654;5.476;2022-07-15T13:12:59;4.60;;;0.60;;
72920;SDS011;61064;51.654;5.476;2022-07-15T13:15:27;5.33;;;0.60;;
72920;SDS011;61064;51.654;5.476;2022-07-15T13:17:52;4.43;;;0.60;;
72920;SDS011;61064;51.654;5.476;2022-07-15T13:20:18;3.93;;;0.67;;
72920;SDS011;61064;51.654;5.476;2022-07-15T13:22:44;3.83;;;0.60;;
72920;SDS011;61064;51.654;5.476;2022-07-15T13:25:10;4.10;;;0.70;;
72920;SDS011;61064;51.654;5.476;2022-07-15T13:27:36;4.07;;;0.60;;
72920;SDS011;61064;51.654;5.476;2022-07-15T13:30:02;3.40;;;0.60;;
72920;SDS011;61064;51.654;5.476;2022-07-15T13:32:29;4.43;;;0.60;;
72920;SDS011;61064;51.654;5.476;2022-07-15T13:34:54;4.67;;;0.80;;
72920;SDS011;61064;51.654;5.476;2022-07-15T13:37:19;5.13;;;0.70;;
72920;SDS011;61064;51.654;5.476;2022-07-15T13:39:45;4.03;;;0.73;;
72920;SDS011;61064;51.654;5.476;2022-07-15T13:42:10;6.27;;;0.93;;
72920;SDS011;61064;51.654;5.476;2022-07-15T13:44:35;5.47;;;0.90;;
72920;SDS011;61064;51.654;5.476;2022-07-15T13:47:01;6.57;;;0.80;;
72920;SDS011;61064;51.654;5.476;2022-07-15T13:49:26;6.75;;;0.90;;
72920;SDS011;61064;51.654;5.476;2022-07-15T13:52:10;7.70;;;1.30;;
72920;SDS011;61064;51.654;5.476;2022-07-15T13:54:35;6.30;;;0.80;;
72920;SDS011;61064;51.654;5.476;2022-07-15T13:57:01;6.68;;;1.17;;
72920;SDS011;61064;51.654;5.476;2022-07-15T13:59:27;7.43;;;1.20;;
72920;SDS011;61064;51.654;5.476;2022-07-15T14:01:52;5.30;;;1.10;;
72920;SDS011;61064;51.654;5.476;2022-07-15T14:04:19;7.10;;;1.00;;
72920;SDS011;61064;51.654;5.476;2022-07-15T14:06:45;4.45;;;0.90;;
72920;SDS011;61064;51.654;5.476;2022-07-15T14:09:10;7.43;;;1.10;;
72920;SDS011;61064;51.654;5.476;2022-07-15T14:11:36;7.57;;;1.17;;
72920;SDS011;61064;51.654;5.476;2022-07-15T14:14:01;5.03;;;0.90;;
72920;SDS011;61064;51.654;5.476;2022-07-15T14:16:27;3.50;;;0.90;;
72920;SDS011;61064;51.654;5.476;2022-07-15T14:18:53;7.82;;;1.20;;
72920;SDS011;61064;51.654;5.476;2022-07-15T14:21:18;5.60;;;1.10;;
72920;SDS011;61064;51.654;5.476;2022-07-15T14:23:44;5.72;;;1.15;;
72920;SDS011;61064;51.654;5.476;2022-07-15T14:26:11;6.17;;;1.00;;
72920;SDS011;61064;51.654;5.476;2022-07-15T14:28:37;5.70;;;1.15;;
72920;SDS011;61064;51.654;5.476;2022-07-15T14:31:04;5.13;;;1.10;;
72920;SDS011;61064;51.654;5.476;2022-07-15T14:33:38;6.10;;;1.25;;
72920;SDS011;61064;51.654;5.476;2022-07-15T14:36:04;6.63;;;1.10;;
72920;SDS011;61064;51.654;5.476;2022-07-15T14:38:30;5.13;;;1.17;;
72920;SDS011;61064;51.654;5.476;2022-07-15T14:40:56;5.65;;;1.00;;
72920;SDS011;61064;51.654;5.476;2022-07-15T14:43:22;6.30;;;1.17;;
72920;SDS011;61064;51.654;5.476;2022-07-15T14:45:48;4.87;;;1.13;;
72920;SDS011;61064;51.654;5.476;2022-07-15T14:48:13;4.33;;;1.03;;
72920;SDS011;61064;51.654;5.476;2022-07-15T14:50:38;5.93;;;1.13;;
72920;SDS011;61064;51.654;5.476;2022-07-15T14:53:04;4.82;;;0.90;;
72920;SDS011;61064;51.654;5.476;2022-07-15T14:55:30;5.63;;;1.20;;
72920;SDS011;61064;51.654;5.476;2022-07-15T14:57:55;5.82;;;1.10;;
72920;SDS011;61064;51.654;5.476;2022-07-15T15:00:23;6.17;;;1.10;;
72920;SDS011;61064;51.654;5.476;2022-07-15T15:02:49;5.18;;;1.10;;
72920;SDS011;61064;51.654;5.476;2022-07-15T15:05:14;4.67;;;1.17;;
72920;SDS011;61064;51.654;5.476;2022-07-15T15:07:40;6.88;;;1.20;;
72920;SDS011;61064;51.654;5.476;2022-07-15T15:10:06;5.87;;;1.00;;
72920;SDS011;61064;51.654;5.476;2022-07-15T15:12:32;6.97;;;1.20;;
72920;SDS011;61064;51.654;5.476;2022-07-15T15:14:57;5.43;;;1.10;;
72920;SDS011;61064;51.654;5.476;2022-07-15T15:17:23;6.35;;;1.15;;
72920;SDS011;61064;51.654;5.476;2022-07-15T15:19:48;4.47;;;0.87;;
72920;SDS011;61064;51.654;5.476;2022-07-15T15:22:13;7.03;;;1.50;;
72920;SDS011;61064;51.654;5.476;2022-07-15T15:24:39;4.60;;;1.13;;
72920;SDS011;61064;51.654;5.476;2022-07-15T15:27:04;4.85;;;1.02;;
72920;SDS011;61064;51.654;5.476;2022-07-15T15:29:31;3.70;;;0.80;;